sensor_id;sensor_type;location;lat;lon;timestamp;temperature;humidity
42965;DHT22;28604;51.204;22.552;2022-12-07T00:01:32;2.10;95.20
42965;DHT22;28604;51.204;22.552;2022-12-07T00:04:00;2.20;95.30
42965;DHT22;28604;51.204;22.552;2022-12-07T00:06:35;2.20;95.10
42965;DHT22;28604;51.204;22.552;2022-12-07T00:09:02;2.20;95.40
42965;DHT22;28604;51.204;22.552;2022-12-07T00:11:28;2.30;95.30
42965;DHT22;28604;51.204;22.552;2022-12-07T00:14:00;2.30;95.40
42965;DHT22;28604;51.204;22.552;2022-12-07T00:16:29;2.30;95.20
42965;DHT22;28604;51.204;22.552;2022-12-07T00:18:55;2.30;95.20
42965;DHT22;28604;51.204;22.552;2022-12-07T00:21:24;2.30;95.20
42965;DHT22;28604;51.204;22.552;2022-12-07T00:23:52;2.30;95.30
42965;DHT22;28604;51.204;22.552;2022-12-07T00:26:24;2.40;95.10
42965;DHT22;28604;51.204;22.552;2022-12-07T00:28:52;2.40;95.10
42965;DHT22;28604;51.204;22.552;2022-12-07T00:31:20;2.40;95.10
42965;DHT22;28604;51.204;22.552;2022-12-07T00:33:47;2.40;95.30
42965;DHT22;28604;51.204;22.552;2022-12-07T00:36:16;2.40;95.30
42965;DHT22;28604;51.204;22.552;2022-12-07T00:38:42;2.40;95.40
42965;DHT22;28604;51.204;22.552;2022-12-07T00:41:17;2.50;95.30
42965;DHT22;28604;51.204;22.552;2022-12-07T00:43:44;2.50;95.10
42965;DHT22;28604;51.204;22.552;2022-12-07T00:46:11;2.50;95.20
42965;DHT22;28604;51.204;22.552;2022-12-07T00:48:37;2.50;95.20
42965;DHT22;28604;51.204;22.552;2022-12-07T00:51:04;2.50;95.30
42965;DHT22;28604;51.204;22.552;2022-12-07T00:53:31;2.50;95.40
42965;DHT22;28604;51.204;22.552;2022-12-07T00:56:05;2.60;95.30
42965;DHT22;28604;51.204;22.552;2022-12-07T00:58:31;2.60;95.20
42965;DHT22;28604;51.204;22.552;2022-12-07T01:01:00;2.60;95.10
42965;DHT22;28604;51.204;22.552;2022-12-07T01:03:27;2.70;95.20
42965;DHT22;28604;51.204;22.552;2022-12-07T01:05:54;2.70;95.20
42965;DHT22;28604;51.204;22.552;2022-12-07T01:08:22;2.70;95.20
42965;DHT22;28604;51.204;22.552;2022-12-07T01:10:49;2.70;95.30
42965;DHT22;28604;51.204;22.552;2022-12-07T01:13:16;2.70;95.40
42965;DHT22;28604;51.204;22.552;2022-12-07T01:15:43;2.70;95.30
42965;DHT22;28604;51.204;22.552;2022-12-07T01:18:10;2.80;95.30
42965;DHT22;28604;51.204;22.552;2022-12-07T01:20:37;2.70;95.50
42965;DHT22;28604;51.204;22.552;2022-12-07T01:23:03;2.70;95.30
42965;DHT22;28604;51.204;22.552;2022-12-07T01:25:29;2.70;95.30
42965;DHT22;28604;51.204;22.552;2022-12-07T01:27:55;2.70;95.30
42965;DHT22;28604;51.204;22.552;2022-12-07T01:30:21;2.80;95.20
42965;DHT22;28604;51.204;22.552;2022-12-07T01:32:47;2.80;95.30
42965;DHT22;28604;51.204;22.552;2022-12-07T01:35:13;2.70;95.50
42965;DHT22;28604;51.204;22.552;2022-12-07T01:37:39;2.70;95.50
42965;DHT22;28604;51.204;22.552;2022-12-07T01:40:07;2.80;95.30
42965;DHT22;28604;51.204;22.552;2022-12-07T01:42:34;2.70;95.40
42965;DHT22;28604;51.204;22.552;2022-12-07T01:45:34;2.80;95.30
42965;DHT22;28604;51.204;22.552;2022-12-07T01:48:02;2.90;95.30
42965;DHT22;28604;51.204;22.552;2022-12-07T01:50:29;2.80;95.10
42965;DHT22;28604;51.204;22.552;2022-12-07T01:52:59;2.80;95.30
42965;DHT22;28604;51.204;22.552;2022-12-07T01:55:27;2.80;95.30
42965;DHT22;28604;51.204;22.552;2022-12-07T01:57:54;2.80;95.30
42965;DHT22;28604;51.204;22.552;2022-12-07T02:00:21;2.80;95.20
42965;DHT22;28604;51.204;22.552;2022-12-07T02:05:17;2.90;95.20
42965;DHT22;28604;51.204;22.552;2022-12-07T02:07:44;2.90;95.20
42965;DHT22;28604;51.204;22.552;2022-12-07T02:12:39;2.90;95.10
42965;DHT22;28604;51.204;22.552;2022-12-07T02:15:06;2.90;95.10
42965;DHT22;28604;51.204;22.552;2022-12-07T02:17:48;2.90;95.10
42965;DHT22;28604;51.204;22.552;2022-12-07T02:20:34;2.90;95.20
42965;DHT22;28604;51.204;22.552;2022-12-07T02:23:20;2.90;95.20
42965;DHT22;28604;51.204;22.552;2022-12-07T02:30:50;2.90;95.20
42965;DHT22;28604;51.204;22.552;2022-12-07T02:33:31;2.90;95.20
42965;DHT22;28604;51.204;22.552;2022-12-07T02:41:18;2.80;95.30
42965;DHT22;28604;51.204;22.552;2022-12-07T02:43:50;2.80;95.30
42965;DHT22;28604;51.204;22.552;2022-12-07T02:46:22;2.80;95.20
42965;DHT22;28604;51.204;22.552;2022-12-07T02:48:49;2.80;95.20
42965;DHT22;28604;51.204;22.552;2022-12-07T02:51:21;2.80;95.20
42965;DHT22;28604;51.204;22.552;2022-12-07T02:53:47;2.80;95.10
42965;DHT22;28604;51.204;22.552;2022-12-07T02:56:42;2.80;95.20
42965;DHT22;28604;51.204;22.552;2022-12-07T02:59:44;2.80;95.20
42965;DHT22;28604;51.204;22.552;2022-12-07T03:13:24;2.80;95.30
42965;DHT22;28604;51.204;22.552;2022-12-07T03:15:55;2.80;95.30
42965;DHT22;28604;51.204;22.552;2022-12-07T03:18:24;2.80;95.30
42965;DHT22;28604;51.204;22.552;2022-12-07T03:20:54;2.70;95.20
42965;DHT22;28604;51.204;22.552;2022-12-07T03:23:23;2.70;95.30
42965;DHT22;28604;51.204;22.552;2022-12-07T03:25:54;2.80;95.30
42965;DHT22;28604;51.204;22.552;2022-12-07T03:28:24;2.80;95.20
42965;DHT22;28604;51.204;22.552;2022-12-07T03:31:16;2.70;95.30
42965;DHT22;28604;51.204;22.552;2022-12-07T03:33:58;2.70;95.20
42965;DHT22;28604;51.204;22.552;2022-12-07T03:36:55;2.60;95.20
42965;DHT22;28604;51.204;22.552;2022-12-07T03:39:30;2.60;95.40
42965;DHT22;28604;51.204;22.552;2022-12-07T03:42:00;2.60;95.30
42965;DHT22;28604;51.204;22.552;2022-12-07T03:44:27;2.60;95.30
42965;DHT22;28604;51.204;22.552;2022-12-07T03:49:53;2.50;95.10
42965;DHT22;28604;51.204;22.552;2022-12-07T03:55:30;2.50;95.20
42965;DHT22;28604;51.204;22.552;2022-12-07T03:58:04;2.40;95.00
42965;DHT22;28604;51.204;22.552;2022-12-07T04:00:32;2.40;95.00
42965;DHT22;28604;51.204;22.552;2022-12-07T04:02:58;2.30;94.90
42965;DHT22;28604;51.204;22.552;2022-12-07T04:05:24;2.20;94.90
42965;DHT22;28604;51.204;22.552;2022-12-07T04:07:50;2.20;94.80
42965;DHT22;28604;51.204;22.552;2022-12-07T04:10:17;2.20;94.90
42965;DHT22;28604;51.204;22.552;2022-12-07T04:12:42;2.10;94.90
42965;DHT22;28604;51.204;22.552;2022-12-07T04:15:09;2.10;94.80
42965;DHT22;28604;51.204;22.552;2022-12-07T04:17:35;2.10;94.90
42965;DHT22;28604;51.204;22.552;2022-12-07T04:20:01;2.10;94.80
42965;DHT22;28604;51.204;22.552;2022-12-07T04:22:27;2.00;94.90
42965;DHT22;28604;51.204;22.552;2022-12-07T04:24:53;2.00;94.90
42965;DHT22;28604;51.204;22.552;2022-12-07T04:27:19;2.00;94.80
42965;DHT22;28604;51.204;22.552;2022-12-07T04:29:45;1.90;94.80
42965;DHT22;28604;51.204;22.552;2022-12-07T04:32:11;1.90;94.80
42965;DHT22;28604;51.204;22.552;2022-12-07T04:34:38;1.90;94.80
42965;DHT22;28604;51.204;22.552;2022-12-07T04:37:04;1.90;94.80
42965;DHT22;28604;51.204;22.552;2022-12-07T04:39:31;1.90;94.80
42965;DHT22;28604;51.204;22.552;2022-12-07T04:41:58;1.80;94.70
42965;DHT22;28604;51.204;22.552;2022-12-07T04:44:26;1.80;94.80
42965;DHT22;28604;51.204;22.552;2022-12-07T04:46:52;1.80;94.80
42965;DHT22;28604;51.204;22.552;2022-12-07T04:49:18;1.80;94.80
42965;DHT22;28604;51.204;22.552;2022-12-07T04:51:45;1.70;94.90
42965;DHT22;28604;51.204;22.552;2022-12-07T04:54:12;1.70;94.80
42965;DHT22;28604;51.204;22.552;2022-12-07T04:56:38;1.70;94.90
42965;DHT22;28604;51.204;22.552;2022-12-07T04:59:05;1.70;95.00
42965;DHT22;28604;51.204;22.552;2022-12-07T05:01:31;1.70;94.90
42965;DHT22;28604;51.204;22.552;2022-12-07T05:03:58;1.70;94.90
42965;DHT22;28604;51.204;22.552;2022-12-07T05:06:24;1.70;94.80
42965;DHT22;28604;51.204;22.552;2022-12-07T05:08:50;1.70;94.80
42965;DHT22;28604;51.204;22.552;2022-12-07T05:11:16;1.70;94.80
42965;DHT22;28604;51.204;22.552;2022-12-07T05:14:04;1.60;95.00
42965;DHT22;28604;51.204;22.552;2022-12-07T05:16:31;1.60;95.00
42965;DHT22;28604;51.204;22.552;2022-12-07T05:18:57;1.70;94.90
42965;DHT22;28604;51.204;22.552;2022-12-07T05:21:23;1.70;94.90
42965;DHT22;28604;51.204;22.552;2022-12-07T05:23:50;1.70;95.00
42965;DHT22;28604;51.204;22.552;2022-12-07T05:26:16;1.70;95.10
42965;DHT22;28604;51.204;22.552;2022-12-07T05:28:42;1.60;95.00
42965;DHT22;28604;51.204;22.552;2022-12-07T05:31:08;1.60;95.00
42965;DHT22;28604;51.204;22.552;2022-12-07T05:33:34;1.60;95.00
42965;DHT22;28604;51.204;22.552;2022-12-07T05:35:59;1.70;94.90
42965;DHT22;28604;51.204;22.552;2022-12-07T05:38:32;1.70;95.00
42965;DHT22;28604;51.204;22.552;2022-12-07T05:41:03;1.70;95.00
42965;DHT22;28604;51.204;22.552;2022-12-07T05:43:30;1.70;95.00
42965;DHT22;28604;51.204;22.552;2022-12-07T05:45:56;1.70;95.00
42965;DHT22;28604;51.204;22.552;2022-12-07T05:48:22;1.70;95.00
42965;DHT22;28604;51.204;22.552;2022-12-07T05:50:49;1.70;94.90
42965;DHT22;28604;51.204;22.552;2022-12-07T05:53:16;1.70;95.10
42965;DHT22;28604;51.204;22.552;2022-12-07T05:55:42;1.70;95.10
42965;DHT22;28604;51.204;22.552;2022-12-07T05:58:08;1.70;95.10
42965;DHT22;28604;51.204;22.552;2022-12-07T06:00:54;1.60;95.20
42965;DHT22;28604;51.204;22.552;2022-12-07T06:03:20;1.70;95.30
42965;DHT22;28604;51.204;22.552;2022-12-07T06:05:46;1.70;95.40
42965;DHT22;28604;51.204;22.552;2022-12-07T06:08:13;1.70;95.30
42965;DHT22;28604;51.204;22.552;2022-12-07T06:10:40;1.70;95.20
42965;DHT22;28604;51.204;22.552;2022-12-07T06:13:08;1.70;95.20
42965;DHT22;28604;51.204;22.552;2022-12-07T06:15:37;1.70;95.30
42965;DHT22;28604;51.204;22.552;2022-12-07T06:18:03;1.70;95.20
42965;DHT22;28604;51.204;22.552;2022-12-07T06:20:29;1.70;95.20
42965;DHT22;28604;51.204;22.552;2022-12-07T06:22:55;1.70;95.30
42965;DHT22;28604;51.204;22.552;2022-12-07T06:25:21;1.70;95.30
42965;DHT22;28604;51.204;22.552;2022-12-07T06:27:47;1.70;95.30
42965;DHT22;28604;51.204;22.552;2022-12-07T06:30:14;1.70;95.40
42965;DHT22;28604;51.204;22.552;2022-12-07T06:32:40;1.70;95.60
42965;DHT22;28604;51.204;22.552;2022-12-07T06:35:06;1.70;95.30
42965;DHT22;28604;51.204;22.552;2022-12-07T06:37:32;1.70;95.30
42965;DHT22;28604;51.204;22.552;2022-12-07T06:39:58;1.70;95.30
42965;DHT22;28604;51.204;22.552;2022-12-07T06:42:24;1.70;95.30
42965;DHT22;28604;51.204;22.552;2022-12-07T06:44:50;1.70;95.20
42965;DHT22;28604;51.204;22.552;2022-12-07T06:47:16;1.70;95.20
42965;DHT22;28604;51.204;22.552;2022-12-07T06:49:42;1.80;95.30
42965;DHT22;28604;51.204;22.552;2022-12-07T06:52:08;1.80;95.20
42965;DHT22;28604;51.204;22.552;2022-12-07T06:54:34;1.70;95.30
42965;DHT22;28604;51.204;22.552;2022-12-07T06:57:00;1.80;95.20
42965;DHT22;28604;51.204;22.552;2022-12-07T06:59:26;1.80;95.20
42965;DHT22;28604;51.204;22.552;2022-12-07T07:01:52;1.80;95.20
42965;DHT22;28604;51.204;22.552;2022-12-07T07:04:17;1.80;95.20
42965;DHT22;28604;51.204;22.552;2022-12-07T07:06:43;1.70;95.10
42965;DHT22;28604;51.204;22.552;2022-12-07T07:09:09;1.70;95.20
42965;DHT22;28604;51.204;22.552;2022-12-07T07:11:35;1.70;95.20
42965;DHT22;28604;51.204;22.552;2022-12-07T07:14:01;1.70;95.30
42965;DHT22;28604;51.204;22.552;2022-12-07T07:16:31;1.70;95.30
42965;DHT22;28604;51.204;22.552;2022-12-07T07:18:57;1.70;95.40
42965;DHT22;28604;51.204;22.552;2022-12-07T07:21:23;1.70;95.30
42965;DHT22;28604;51.204;22.552;2022-12-07T07:23:49;1.70;95.30
42965;DHT22;28604;51.204;22.552;2022-12-07T07:26:15;1.70;95.20
42965;DHT22;28604;51.204;22.552;2022-12-07T07:28:41;1.80;95.20
42965;DHT22;28604;51.204;22.552;2022-12-07T07:31:07;1.70;95.20
42965;DHT22;28604;51.204;22.552;2022-12-07T07:33:33;1.80;95.20
42965;DHT22;28604;51.204;22.552;2022-12-07T07:35:59;1.80;95.30
42965;DHT22;28604;51.204;22.552;2022-12-07T07:38:25;1.80;95.30
42965;DHT22;28604;51.204;22.552;2022-12-07T07:40:51;1.70;95.20
42965;DHT22;28604;51.204;22.552;2022-12-07T07:43:16;1.80;95.30
42965;DHT22;28604;51.204;22.552;2022-12-07T07:45:44;1.80;95.30
42965;DHT22;28604;51.204;22.552;2022-12-07T07:48:09;1.70;95.30
42965;DHT22;28604;51.204;22.552;2022-12-07T07:50:35;1.80;95.30
42965;DHT22;28604;51.204;22.552;2022-12-07T07:53:01;1.80;95.20
42965;DHT22;28604;51.204;22.552;2022-12-07T07:55:27;1.80;95.20
42965;DHT22;28604;51.204;22.552;2022-12-07T07:57:54;1.80;95.20
42965;DHT22;28604;51.204;22.552;2022-12-07T08:00:20;1.80;95.20
42965;DHT22;28604;51.204;22.552;2022-12-07T08:02:46;1.80;95.30
42965;DHT22;28604;51.204;22.552;2022-12-07T08:05:13;1.80;95.30
42965;DHT22;28604;51.204;22.552;2022-12-07T08:07:39;1.80;95.30
42965;DHT22;28604;51.204;22.552;2022-12-07T08:10:07;1.80;95.20
42965;DHT22;28604;51.204;22.552;2022-12-07T08:12:39;1.80;95.30
42965;DHT22;28604;51.204;22.552;2022-12-07T08:15:27;1.80;95.20
42965;DHT22;28604;51.204;22.552;2022-12-07T08:17:53;1.80;95.30
42965;DHT22;28604;51.204;22.552;2022-12-07T08:20:20;1.80;95.30
42965;DHT22;28604;51.204;22.552;2022-12-07T08:22:46;1.90;95.20
42965;DHT22;28604;51.204;22.552;2022-12-07T08:25:12;1.90;95.40
42965;DHT22;28604;51.204;22.552;2022-12-07T08:27:38;1.90;95.30
42965;DHT22;28604;51.204;22.552;2022-12-07T08:30:04;1.90;95.30
42965;DHT22;28604;51.204;22.552;2022-12-07T08:32:32;1.90;95.20
42965;DHT22;28604;51.204;22.552;2022-12-07T08:34:58;1.90;95.20
42965;DHT22;28604;51.204;22.552;2022-12-07T08:37:24;2.00;95.20
42965;DHT22;28604;51.204;22.552;2022-12-07T08:39:51;2.00;95.20
42965;DHT22;28604;51.204;22.552;2022-12-07T08:42:17;2.00;95.20
42965;DHT22;28604;51.204;22.552;2022-12-07T08:44:43;2.00;95.20
42965;DHT22;28604;51.204;22.552;2022-12-07T08:47:10;2.00;95.10
42965;DHT22;28604;51.204;22.552;2022-12-07T08:49:41;2.00;95.10
42965;DHT22;28604;51.204;22.552;2022-12-07T08:52:09;2.00;95.00
42965;DHT22;28604;51.204;22.552;2022-12-07T08:54:36;2.00;94.90
42965;DHT22;28604;51.204;22.552;2022-12-07T08:57:03;2.00;94.90
42965;DHT22;28604;51.204;22.552;2022-12-07T08:59:29;1.90;95.00
42965;DHT22;28604;51.204;22.552;2022-12-07T09:01:56;1.90;95.00
42965;DHT22;28604;51.204;22.552;2022-12-07T09:04:22;1.80;95.10
42965;DHT22;28604;51.204;22.552;2022-12-07T09:06:48;1.80;95.00
42965;DHT22;28604;51.204;22.552;2022-12-07T09:09:14;1.80;95.00
42965;DHT22;28604;51.204;22.552;2022-12-07T09:11:40;1.80;95.10
42965;DHT22;28604;51.204;22.552;2022-12-07T09:14:07;1.80;95.10
42965;DHT22;28604;51.204;22.552;2022-12-07T09:16:32;1.80;95.00
42965;DHT22;28604;51.204;22.552;2022-12-07T09:18:59;1.70;95.10
42965;DHT22;28604;51.204;22.552;2022-12-07T09:21:24;1.80;95.20
42965;DHT22;28604;51.204;22.552;2022-12-07T09:23:50;1.70;95.30
42965;DHT22;28604;51.204;22.552;2022-12-07T09:26:16;1.70;95.30
42965;DHT22;28604;51.204;22.552;2022-12-07T09:28:42;1.70;95.30
42965;DHT22;28604;51.204;22.552;2022-12-07T09:31:08;1.80;95.30
42965;DHT22;28604;51.204;22.552;2022-12-07T09:33:35;1.80;95.30
42965;DHT22;28604;51.204;22.552;2022-12-07T09:36:00;1.70;95.30
42965;DHT22;28604;51.204;22.552;2022-12-07T09:38:27;1.70;95.30
42965;DHT22;28604;51.204;22.552;2022-12-07T09:40:54;1.70;95.40
42965;DHT22;28604;51.204;22.552;2022-12-07T09:43:22;1.80;95.30
42965;DHT22;28604;51.204;22.552;2022-12-07T09:45:52;1.80;95.60
42965;DHT22;28604;51.204;22.552;2022-12-07T09:48:30;1.80;95.30
42965;DHT22;28604;51.204;22.552;2022-12-07T09:50:58;1.80;95.30
42965;DHT22;28604;51.204;22.552;2022-12-07T09:53:28;1.80;95.30
42965;DHT22;28604;51.204;22.552;2022-12-07T09:55:55;1.80;95.40
42965;DHT22;28604;51.204;22.552;2022-12-07T09:58:25;1.90;95.30
42965;DHT22;28604;51.204;22.552;2022-12-07T10:01:08;1.90;95.30
42965;DHT22;28604;51.204;22.552;2022-12-07T10:03:38;1.80;95.40
42965;DHT22;28604;51.204;22.552;2022-12-07T10:06:07;1.90;95.50
42965;DHT22;28604;51.204;22.552;2022-12-07T10:08:33;1.90;95.40
42965;DHT22;28604;51.204;22.552;2022-12-07T10:11:03;1.90;95.50
42965;DHT22;28604;51.204;22.552;2022-12-07T10:13:46;2.00;95.40
42965;DHT22;28604;51.204;22.552;2022-12-07T10:19:20;1.90;95.30
42965;DHT22;28604;51.204;22.552;2022-12-07T10:22:12;1.90;95.30
42965;DHT22;28604;51.204;22.552;2022-12-07T10:24:40;1.90;95.40
42965;DHT22;28604;51.204;22.552;2022-12-07T10:27:29;1.90;95.50
42965;DHT22;28604;51.204;22.552;2022-12-07T10:29:57;1.90;95.40
42965;DHT22;28604;51.204;22.552;2022-12-07T10:32:33;1.90;95.40
42965;DHT22;28604;51.204;22.552;2022-12-07T10:35:20;1.90;95.40
42965;DHT22;28604;51.204;22.552;2022-12-07T10:37:47;2.00;95.40
42965;DHT22;28604;51.204;22.552;2022-12-07T10:59:15;2.10;95.50
42965;DHT22;28604;51.204;22.552;2022-12-07T11:01:57;2.10;95.50
42965;DHT22;28604;51.204;22.552;2022-12-07T11:04:55;2.00;95.50
42965;DHT22;28604;51.204;22.552;2022-12-07T11:07:51;2.10;95.60
42965;DHT22;28604;51.204;22.552;2022-12-07T11:12:57;2.10;95.90
42965;DHT22;28604;51.204;22.552;2022-12-07T11:15:30;2.10;95.60
42965;DHT22;28604;51.204;22.552;2022-12-07T11:23:46;2.10;95.50
42965;DHT22;28604;51.204;22.552;2022-12-07T11:26:30;2.20;95.40
42965;DHT22;28604;51.204;22.552;2022-12-07T11:37:31;2.20;95.40
42965;DHT22;28604;51.204;22.552;2022-12-07T11:42:42;2.10;95.50
42965;DHT22;28604;51.204;22.552;2022-12-07T11:45:17;2.20;95.50
42965;DHT22;28604;51.204;22.552;2022-12-07T11:48:02;2.20;95.50
42965;DHT22;28604;51.204;22.552;2022-12-07T12:01:15;2.20;95.60
42965;DHT22;28604;51.204;22.552;2022-12-07T12:03:56;2.20;95.50
42965;DHT22;28604;51.204;22.552;2022-12-07T12:06:23;2.20;95.70
42965;DHT22;28604;51.204;22.552;2022-12-07T12:17:25;2.20;95.40
42965;DHT22;28604;51.204;22.552;2022-12-07T12:25:34;2.20;95.50
42965;DHT22;28604;51.204;22.552;2022-12-07T12:28:02;2.20;95.60
42965;DHT22;28604;51.204;22.552;2022-12-07T12:30:35;2.20;95.60
42965;DHT22;28604;51.204;22.552;2022-12-07T12:33:05;2.20;95.40
42965;DHT22;28604;51.204;22.552;2022-12-07T12:35:34;2.20;95.40
42965;DHT22;28604;51.204;22.552;2022-12-07T12:38:24;2.20;95.30
42965;DHT22;28604;51.204;22.552;2022-12-07T12:40:51;2.20;95.20
42965;DHT22;28604;51.204;22.552;2022-12-07T12:43:41;2.20;95.50
42965;DHT22;28604;51.204;22.552;2022-12-07T12:48:54;2.20;95.40
42965;DHT22;28604;51.204;22.552;2022-12-07T12:51:38;2.30;95.50
42965;DHT22;28604;51.204;22.552;2022-12-07T12:54:12;2.30;95.50
42965;DHT22;28604;51.204;22.552;2022-12-07T12:59:34;2.30;95.30
42965;DHT22;28604;51.204;22.552;2022-12-07T13:02:22;2.30;95.40
42965;DHT22;28604;51.204;22.552;2022-12-07T13:20:53;2.40;95.30
42965;DHT22;28604;51.204;22.552;2022-12-07T13:29:11;2.30;95.20
42965;DHT22;28604;51.204;22.552;2022-12-07T13:31:53;2.30;95.20
42965;DHT22;28604;51.204;22.552;2022-12-07T13:34:36;2.30;95.30
42965;DHT22;28604;51.204;22.552;2022-12-07T13:39:51;2.30;95.20
42965;DHT22;28604;51.204;22.552;2022-12-07T13:42:29;2.30;95.20
42965;DHT22;28604;51.204;22.552;2022-12-07T13:44:56;2.30;95.30
42965;DHT22;28604;51.204;22.552;2022-12-07T13:47:44;2.30;95.20
42965;DHT22;28604;51.204;22.552;2022-12-07T13:50:25;2.40;95.30
42965;DHT22;28604;51.204;22.552;2022-12-07T13:52:55;2.40;95.20
42965;DHT22;28604;51.204;22.552;2022-12-07T13:55:22;2.30;95.10
42965;DHT22;28604;51.204;22.552;2022-12-07T13:57:51;2.30;95.20
42965;DHT22;28604;51.204;22.552;2022-12-07T14:10:31;2.30;95.20
42965;DHT22;28604;51.204;22.552;2022-12-07T14:12:58;2.30;95.10
42965;DHT22;28604;51.204;22.552;2022-12-07T14:15:32;2.20;95.20
42965;DHT22;28604;51.204;22.552;2022-12-07T14:18:01;2.20;95.40
42965;DHT22;28604;51.204;22.552;2022-12-07T14:20:38;2.20;95.30
42965;DHT22;28604;51.204;22.552;2022-12-07T14:23:19;2.30;95.30
42965;DHT22;28604;51.204;22.552;2022-12-07T14:25:51;2.20;95.20
42965;DHT22;28604;51.204;22.552;2022-12-07T14:28:29;2.20;95.10
42965;DHT22;28604;51.204;22.552;2022-12-07T14:30:56;2.30;95.20
42965;DHT22;28604;51.204;22.552;2022-12-07T14:33:24;2.20;95.30
42965;DHT22;28604;51.204;22.552;2022-12-07T14:35:50;2.20;95.20
42965;DHT22;28604;51.204;22.552;2022-12-07T14:38:21;2.20;95.10
42965;DHT22;28604;51.204;22.552;2022-12-07T14:40:48;2.20;95.20
42965;DHT22;28604;51.204;22.552;2022-12-07T14:43:16;2.20;95.10
42965;DHT22;28604;51.204;22.552;2022-12-07T14:45:42;2.20;95.10
42965;DHT22;28604;51.204;22.552;2022-12-07T14:48:14;2.20;95.10
42965;DHT22;28604;51.204;22.552;2022-12-07T14:50:51;2.20;95.30
42965;DHT22;28604;51.204;22.552;2022-12-07T14:53:21;2.20;95.40
42965;DHT22;28604;51.204;22.552;2022-12-07T14:55:53;2.20;95.30
42965;DHT22;28604;51.204;22.552;2022-12-07T14:58:19;2.10;95.20
42965;DHT22;28604;51.204;22.552;2022-12-07T15:00:46;2.10;95.30
42965;DHT22;28604;51.204;22.552;2022-12-07T15:03:14;2.10;95.20
42965;DHT22;28604;51.204;22.552;2022-12-07T15:05:40;2.10;95.30
42965;DHT22;28604;51.204;22.552;2022-12-07T15:08:09;2.10;95.20
42965;DHT22;28604;51.204;22.552;2022-12-07T15:10:35;2.10;95.30
42965;DHT22;28604;51.204;22.552;2022-12-07T15:13:04;2.10;95.30
42965;DHT22;28604;51.204;22.552;2022-12-07T15:15:51;2.20;95.10
42965;DHT22;28604;51.204;22.552;2022-12-07T15:18:18;2.20;95.20
42965;DHT22;28604;51.204;22.552;2022-12-07T15:20:45;2.20;95.30
42965;DHT22;28604;51.204;22.552;2022-12-07T15:23:12;2.20;95.20
42965;DHT22;28604;51.204;22.552;2022-12-07T15:25:45;2.20;95.20
42965;DHT22;28604;51.204;22.552;2022-12-07T15:28:12;2.20;95.10
42965;DHT22;28604;51.204;22.552;2022-12-07T15:30:39;2.10;95.20
42965;DHT22;28604;51.204;22.552;2022-12-07T15:33:06;2.20;95.30
42965;DHT22;28604;51.204;22.552;2022-12-07T15:35:32;2.10;95.20
42965;DHT22;28604;51.204;22.552;2022-12-07T15:37:58;2.20;95.10
42965;DHT22;28604;51.204;22.552;2022-12-07T15:40:23;2.20;95.30
42965;DHT22;28604;51.204;22.552;2022-12-07T15:42:49;2.10;95.10
42965;DHT22;28604;51.204;22.552;2022-12-07T15:45:15;2.10;95.50
42965;DHT22;28604;51.204;22.552;2022-12-07T15:47:43;2.10;95.40
42965;DHT22;28604;51.204;22.552;2022-12-07T15:50:13;2.20;95.30
42965;DHT22;28604;51.204;22.552;2022-12-07T15:52:40;2.20;95.20
42965;DHT22;28604;51.204;22.552;2022-12-07T15:55:06;2.20;95.20
42965;DHT22;28604;51.204;22.552;2022-12-07T15:57:35;2.20;95.20
42965;DHT22;28604;51.204;22.552;2022-12-07T16:00:08;2.20;95.20
42965;DHT22;28604;51.204;22.552;2022-12-07T16:02:37;2.20;95.20
42965;DHT22;28604;51.204;22.552;2022-12-07T16:05:04;2.20;95.20
42965;DHT22;28604;51.204;22.552;2022-12-07T16:07:30;2.10;95.00
42965;DHT22;28604;51.204;22.552;2022-12-07T16:09:55;2.20;95.10
42965;DHT22;28604;51.204;22.552;2022-12-07T16:12:22;2.20;95.10
42965;DHT22;28604;51.204;22.552;2022-12-07T16:14:47;2.20;95.10
42965;DHT22;28604;51.204;22.552;2022-12-07T16:17:13;2.10;95.30
42965;DHT22;28604;51.204;22.552;2022-12-07T16:19:39;2.20;95.30
42965;DHT22;28604;51.204;22.552;2022-12-07T16:22:05;2.20;95.20
42965;DHT22;28604;51.204;22.552;2022-12-07T16:24:32;2.20;95.10
42965;DHT22;28604;51.204;22.552;2022-12-07T16:26:58;2.20;95.10
42965;DHT22;28604;51.204;22.552;2022-12-07T16:29:24;2.20;95.30
42965;DHT22;28604;51.204;22.552;2022-12-07T16:31:51;2.20;95.30
42965;DHT22;28604;51.204;22.552;2022-12-07T16:34:17;2.20;95.10
42965;DHT22;28604;51.204;22.552;2022-12-07T16:36:44;2.10;95.10
42965;DHT22;28604;51.204;22.552;2022-12-07T16:39:10;2.10;95.20
42965;DHT22;28604;51.204;22.552;2022-12-07T16:41:36;2.20;95.10
42965;DHT22;28604;51.204;22.552;2022-12-07T16:44:04;2.10;95.20
42965;DHT22;28604;51.204;22.552;2022-12-07T16:46:34;2.20;95.10
42965;DHT22;28604;51.204;22.552;2022-12-07T16:49:01;2.20;95.10
42965;DHT22;28604;51.204;22.552;2022-12-07T16:51:28;2.20;95.20
42965;DHT22;28604;51.204;22.552;2022-12-07T16:53:54;2.20;95.10
42965;DHT22;28604;51.204;22.552;2022-12-07T16:56:21;2.20;95.10
42965;DHT22;28604;51.204;22.552;2022-12-07T16:58:47;2.20;95.10
42965;DHT22;28604;51.204;22.552;2022-12-07T17:01:16;2.20;95.20
42965;DHT22;28604;51.204;22.552;2022-12-07T17:03:44;2.20;95.10
42965;DHT22;28604;51.204;22.552;2022-12-07T17:06:15;2.20;95.20
42965;DHT22;28604;51.204;22.552;2022-12-07T17:08:42;2.20;95.20
42965;DHT22;28604;51.204;22.552;2022-12-07T17:13:43;2.10;95.20
42965;DHT22;28604;51.204;22.552;2022-12-07T17:16:28;2.20;95.30
42965;DHT22;28604;51.204;22.552;2022-12-07T17:18:54;2.20;95.30
42965;DHT22;28604;51.204;22.552;2022-12-07T17:21:20;2.20;95.10
42965;DHT22;28604;51.204;22.552;2022-12-07T17:23:47;2.20;95.20
42965;DHT22;28604;51.204;22.552;2022-12-07T17:26:24;2.20;95.30
42965;DHT22;28604;51.204;22.552;2022-12-07T17:28:51;2.20;95.20
42965;DHT22;28604;51.204;22.552;2022-12-07T17:31:19;2.20;95.20
42965;DHT22;28604;51.204;22.552;2022-12-07T17:33:45;2.20;95.40
42965;DHT22;28604;51.204;22.552;2022-12-07T17:36:17;2.20;95.30
42965;DHT22;28604;51.204;22.552;2022-12-07T17:38:43;2.20;95.50
42965;DHT22;28604;51.204;22.552;2022-12-07T17:41:15;2.20;95.30
42965;DHT22;28604;51.204;22.552;2022-12-07T17:44:02;2.30;95.40
42965;DHT22;28604;51.204;22.552;2022-12-07T17:46:30;2.20;95.40
42965;DHT22;28604;51.204;22.552;2022-12-07T17:48:57;2.20;95.30
42965;DHT22;28604;51.204;22.552;2022-12-07T17:51:23;2.30;95.40
42965;DHT22;28604;51.204;22.552;2022-12-07T17:54:09;2.30;95.40
42965;DHT22;28604;51.204;22.552;2022-12-07T17:56:36;2.30;95.30
42965;DHT22;28604;51.204;22.552;2022-12-07T17:59:02;2.30;95.30
42965;DHT22;28604;51.204;22.552;2022-12-07T18:01:28;2.40;95.40
42965;DHT22;28604;51.204;22.552;2022-12-07T18:03:54;2.30;95.20
42965;DHT22;28604;51.204;22.552;2022-12-07T18:06:20;2.30;95.30